Time;durP1;ratioP1;P1;durP2;ratioP2;P2;SDS_P1;SDS_P2;PMS_P1;PMS_P2;Temp;Humidity;BMP_temperature;BMP_pressure;BME280_temperature;BME280_humidity;BME280_pressure;Samples;Min_cycle;Max_cycle;Signal;HPM_P1;HPM_P2
2022/05/23 19:27:22;;;;;;;6.70;1.90;;;23.60;47.20;;;;;;219240;1275;22640;-59
2022/05/23 19:32:26;;;;;;;4.90;2.50;;;23.50;46.60;;;;;;219290;1275;24240;-58
2022/05/23 19:37:30;;;;;;;8.20;2.50;;;23.50;44.80;;;;;;219252;1275;22612;-58
2022/05/23 19:42:34;;;;;;;3.60;1.90;;;23.40;44.40;;;;;;219275;1274;22611;-59
2022/05/23 19:47:39;;;;;;;10.50;3.30;;;23.30;44.50;;;;;;219264;1275;25608;-61
2022/05/23 19:52:45;;;;;;;6.20;2.00;;;23.30;44.20;;;;;;219330;1276;25693;-57
2022/05/23 19:57:57;;;;;;;8.40;2.70;;;23.30;45.70;;;;;;219328;1274;22652;-58
2022/05/23 20:08:32;;;;;;;6.20;2.30;;;23.40;46.30;;;;;;219425;1274;24239;-58
2022/05/23 20:13:42;;;;;;;4.60;2.40;;;23.50;46.60;;;;;;219259;1276;24290;-60
2022/05/23 20:18:46;;;;;;;5.80;2.40;;;23.50;47.80;;;;;;219457;1274;22610;-57
2022/05/23 20:23:51;;;;;;;9.60;2.50;;;23.50;48.00;;;;;;219210;1274;25395;-58
2022/05/23 20:29:06;;;;;;;10.30;2.50;;;23.50;48.80;;;;;;219171;1275;23946;-56
2022/05/23 20:34:14;;;;;;;7.00;2.60;;;23.50;48.50;;;;;;219278;1275;25427;-56
2022/05/23 20:39:24;;;;;;;8.50;2.30;;;23.50;48.60;;;;;;219251;1275;24236;-56
2022/05/23 20:44:39;;;;;;;7.20;3.00;;;23.50;49.30;;;;;;219182;1276;26627;-56
2022/05/23 20:50:17;;;;;;;6.50;2.60;;;23.50;49.80;;;;;;219166;1275;23925;-58
2022/05/23 20:55:41;;;;;;;4.60;2.30;;;23.50;49.50;;;;;;219281;1276;25263;-57
2022/05/23 21:00:45;;;;;;;6.90;2.60;;;23.50;49.40;;;;;;219379;1276;23755;-57
2022/05/23 21:05:50;;;;;;;8.60;2.60;;;23.50;49.90;;;;;;219306;1276;24905;-59
2022/05/23 21:10:54;;;;;;;7.70;2.60;;;23.50;49.70;;;;;;219211;1277;22702;-59
2022/05/23 21:16:01;;;;;;;5.20;2.30;;;23.40;49.70;;;;;;219166;1277;22842;-60
2022/05/23 21:21:04;;;;;;;9.30;2.90;;;23.40;49.80;;;;;;219315;1277;22629;-61
2022/05/23 21:26:13;;;;;;;11.80;3.30;;;23.40;49.80;;;;;;219243;1275;23050;-56
2022/05/23 21:31:17;;;;;;;12.40;3.30;;;23.40;49.80;;;;;;219257;1277;24240;-57
2022/05/23 21:36:21;;;;;;;14.80;3.70;;;23.50;49.70;;;;;;219177;1278;22616;-61
2022/05/23 21:46:51;;;;;;;15.90;4.30;;;23.90;50.00;;;;;;219375;1278;23191;-59
2022/05/23 21:52:03;;;;;;;6.30;3.30;;;23.90;50.30;;;;;;219299;1278;25471;-58
2022/05/23 21:57:07;;;;;;;13.70;3.70;;;24.00;50.90;;;;;;219324;1275;24073;-58
2022/05/23 22:02:13;;;;;;;14.90;4.20;;;24.00;51.60;;;;;;219359;1275;22707;-58
2022/05/23 22:07:19;;;;;;;23.00;5.30;;;23.90;52.40;;;;;;219307;1274;26590;-59
2022/05/23 22:12:23;;;;;;;15.80;3.70;;;23.80;52.70;;;;;;219296;1278;22634;-58
2022/05/23 22:17:27;;;;;;;9.80;3.00;;;23.80;54.50;;;;;;219180;1278;24285;-58
2022/05/23 22:22:31;;;;;;;11.20;2.90;;;23.70;55.50;;;;;;219186;1277;24433;-57
2022/05/23 22:27:35;;;;;;;7.70;2.90;;;23.70;55.70;;;;;;219275;1277;22629;-60
2022/05/23 22:32:39;;;;;;;8.10;3.40;;;23.70;56.00;;;;;;219245;1277;25494;-58
2022/05/23 22:37:47;;;;;;;9.20;3.00;;;23.70;55.60;;;;;;219215;1278;22668;-56
2022/05/23 22:42:51;;;;;;;12.90;2.80;;;23.70;55.30;;;;;;219203;1278;24214;-58
2022/05/23 22:47:56;;;;;;;11.40;2.90;;;23.60;55.50;;;;;;219246;1277;25355;-58
2022/05/23 22:53:02;;;;;;;9.10;2.90;;;23.60;55.80;;;;;;219204;1277;23505;-57
2022/05/23 22:58:07;;;;;;;3.70;2.20;;;23.60;55.40;;;;;;219368;1274;24246;-57
2022/05/23 23:08:37;;;;;;;5.40;2.50;;;23.60;55.20;;;;;;219330;1275;23585;-57
2022/05/23 23:13:51;;;;;;;6.10;2.40;;;23.60;55.20;;;;;;219300;1275;25592;-59
2022/05/23 23:18:55;;;;;;;8.30;2.50;;;23.60;55.40;;;;;;219330;1274;25325;-57
2022/05/23 23:23:59;;;;;;;4.60;2.20;;;23.50;55.40;;;;;;219303;1275;23068;-57
2022/05/23 23:29:05;;;;;;;12.10;3.20;;;23.50;54.90;;;;;;219320;1274;22573;-57
2022/05/23 23:39:34;;;;;;;8.00;3.20;;;23.50;55.10;;;;;;219279;1275;25594;-57
2022/05/23 23:44:38;;;;;;;9.00;2.50;;;23.50;55.10;;;;;;219155;1276;24895;-57
2022/05/23 23:49:42;;;;;;;6.10;2.30;;;23.50;54.60;;;;;;219345;1275;22541;-57
2022/05/23 23:54:46;;;;;;;7.80;2.60;;;23.50;54.60;;;;;;219284;1274;23842;-57
2022/05/23 23:59:50;;;;;;;8.40;2.80;;;23.50;54.50;;;;;;219281;1274;22642;-61
